sensor_id;sensor_type;location;lat;lon;timestamp;pressure;altitude;pressure_sealevel;temperature;humidity
79645;BME280;69117;47.148;18.954;2023-04-24T00:02:32;99840.25;;;11.90;68.39
79645;BME280;69117;47.148;18.954;2023-04-24T00:05:34;99849.84;;;12.00;66.84
79645;BME280;69117;47.148;18.954;2023-04-24T00:08:35;99858.28;;;12.11;67.60
79645;BME280;69117;47.148;18.954;2023-04-24T00:11:37;99858.13;;;12.21;69.32
79645;BME280;69117;47.148;18.954;2023-04-24T00:14:39;99859.97;;;12.76;66.92
79645;BME280;69117;47.148;18.954;2023-04-24T00:17:41;99877.69;;;12.84;64.19
79645;BME280;69117;47.148;18.954;2023-04-24T00:20:42;99874.16;;;12.44;71.54
79645;BME280;69117;47.148;18.954;2023-04-24T00:23:45;99863.06;;;12.24;73.61
79645;BME280;69117;47.148;18.954;2023-04-24T00:26:47;99859.59;;;12.15;70.30
79645;BME280;69117;47.148;18.954;2023-04-24T00:29:48;99855.47;;;12.13;73.68
79645;BME280;69117;47.148;18.954;2023-04-24T00:32:50;99852.38;;;12.73;66.83
79645;BME280;69117;47.148;18.954;2023-04-24T00:35:52;99841.34;;;12.53;64.26
79645;BME280;69117;47.148;18.954;2023-04-24T00:38:54;99838.56;;;12.38;0.00
79645;BME280;69117;47.148;18.954;2023-04-24T00:41:56;99831.13;;;12.26;0.00
79645;BME280;69117;47.148;18.954;2023-04-24T00:44:58;99829.66;;;12.15;0.00
79645;BME280;69117;47.148;18.954;2023-04-24T00:48:00;99824.69;;;12.04;0.00
79645;BME280;69117;47.148;18.954;2023-04-24T00:51:03;99825.22;;;11.99;0.00
79645;BME280;69117;47.148;18.954;2023-04-24T00:54:04;99821.41;;;11.85;0.00
79645;BME280;69117;47.148;18.954;2023-04-24T00:57:06;99822.88;;;11.72;0.00
79645;BME280;69117;47.148;18.954;2023-04-24T01:00:09;99829.78;;;11.64;0.00
79645;BME280;69117;47.148;18.954;2023-04-24T01:03:12;99834.25;;;11.64;0.00
79645;BME280;69117;47.148;18.954;2023-04-24T01:06:15;99840.06;;;11.76;0.00
79645;BME280;69117;47.148;18.954;2023-04-24T01:09:18;99830.97;;;11.62;0.00
79645;BME280;69117;47.148;18.954;2023-04-24T01:12:20;99816.22;;;11.67;0.00
79645;BME280;69117;47.148;18.954;2023-04-24T01:15:21;99816.91;;;11.69;0.00
79645;BME280;69117;47.148;18.954;2023-04-24T01:18:23;99793.75;;;11.47;0.00
79645;BME280;69117;47.148;18.954;2023-04-24T01:21:26;99801.19;;;11.60;0.00
79645;BME280;69117;47.148;18.954;2023-04-24T01:24:31;99785.66;;;11.57;0.00
79645;BME280;69117;47.148;18.954;2023-04-24T01:27:33;99796.72;;;11.77;0.00
79645;BME280;69117;47.148;18.954;2023-04-24T01:30:34;99787.81;;;11.78;0.00
79645;BME280;69117;47.148;18.954;2023-04-24T01:33:36;99773.41;;;11.72;0.00
79645;BME280;69117;47.148;18.954;2023-04-24T01:36:38;99782.66;;;11.76;0.00
79645;BME280;69117;47.148;18.954;2023-04-24T01:39:40;99763.84;;;11.71;0.00
79645;BME280;69117;47.148;18.954;2023-04-24T01:42:42;99763.50;;;11.66;0.00
79645;BME280;69117;47.148;18.954;2023-04-24T01:45:44;99752.56;;;11.53;0.00
79645;BME280;69117;47.148;18.954;2023-04-24T01:48:46;99760.53;;;11.44;0.00
79645;BME280;69117;47.148;18.954;2023-04-24T01:51:47;99740.00;;;11.30;0.00
79645;BME280;69117;47.148;18.954;2023-04-24T01:54:49;99745.47;;;11.29;0.00
79645;BME280;69117;47.148;18.954;2023-04-24T01:57:52;99734.38;;;11.25;0.00
79645;BME280;69117;47.148;18.954;2023-04-24T02:00:56;99720.66;;;11.21;0.00
79645;BME280;69117;47.148;18.954;2023-04-24T02:04:00;99711.25;;;11.19;0.00
79645;BME280;69117;47.148;18.954;2023-04-24T02:07:02;99722.63;;;11.19;0.00
79645;BME280;69117;47.148;18.954;2023-04-24T02:10:04;99719.50;;;11.16;0.00
79645;BME280;69117;47.148;18.954;2023-04-24T02:13:06;99707.59;;;11.12;0.00
79645;BME280;69117;47.148;18.954;2023-04-24T02:16:07;99717.69;;;11.24;0.00
79645;BME280;69117;47.148;18.954;2023-04-24T02:19:09;99703.16;;;11.20;0.00
79645;BME280;69117;47.148;18.954;2023-04-24T02:22:11;99720.50;;;11.31;0.00
79645;BME280;69117;47.148;18.954;2023-04-24T02:25:13;99703.31;;;11.19;0.00
79645;BME280;69117;47.148;18.954;2023-04-24T02:28:15;99717.38;;;11.28;0.00
79645;BME280;69117;47.148;18.954;2023-04-24T02:31:16;99712.41;;;11.24;0.00
79645;BME280;69117;47.148;18.954;2023-04-24T02:34:18;99721.34;;;11.23;0.00
79645;BME280;69117;47.148;18.954;2023-04-24T02:37:19;99741.34;;;11.26;0.00
79645;BME280;69117;47.148;18.954;2023-04-24T02:40:21;99746.44;;;11.19;0.00
79645;BME280;69117;47.148;18.954;2023-04-24T02:43:22;99724.97;;;11.14;0.00
79645;BME280;69117;47.148;18.954;2023-04-24T02:46:25;99704.13;;;11.19;0.00
79645;BME280;69117;47.148;18.954;2023-04-24T02:49:26;99712.56;;;11.31;0.00
79645;BME280;69117;47.148;18.954;2023-04-24T02:52:28;99709.28;;;11.29;0.00
79645;BME280;69117;47.148;18.954;2023-04-24T02:55:30;99711.25;;;11.27;0.00
79645;BME280;69117;47.148;18.954;2023-04-24T02:58:31;99712.75;;;11.30;0.00
79645;BME280;69117;47.148;18.954;2023-04-24T03:01:33;99682.50;;;11.24;0.00
79645;BME280;69117;47.148;18.954;2023-04-24T03:04:35;99690.94;;;11.28;0.00
79645;BME280;69117;47.148;18.954;2023-04-24T03:07:37;99658.53;;;11.17;0.00
79645;BME280;69117;47.148;18.954;2023-04-24T03:10:39;99667.97;;;11.20;0.00
79645;BME280;69117;47.148;18.954;2023-04-24T03:13:41;99679.19;;;11.38;0.00
79645;BME280;69117;47.148;18.954;2023-04-24T03:16:42;99682.00;;;11.45;0.00
79645;BME280;69117;47.148;18.954;2023-04-24T03:19:44;99680.50;;;11.42;0.00
79645;BME280;69117;47.148;18.954;2023-04-24T03:22:46;99680.03;;;11.47;0.00
79645;BME280;69117;47.148;18.954;2023-04-24T03:25:47;99671.75;;;11.42;0.00
79645;BME280;69117;47.148;18.954;2023-04-24T03:28:49;99669.94;;;11.51;0.00
79645;BME280;69117;47.148;18.954;2023-04-24T03:31:51;99668.44;;;11.48;0.00
79645;BME280;69117;47.148;18.954;2023-04-24T03:34:53;99675.22;;;11.51;0.00
79645;BME280;69117;47.148;18.954;2023-04-24T03:37:54;99663.47;;;11.53;0.00
79645;BME280;69117;47.148;18.954;2023-04-24T03:40:56;99667.59;;;11.56;0.00
79645;BME280;69117;47.148;18.954;2023-04-24T03:43:58;99669.44;;;11.47;0.00
79645;BME280;69117;47.148;18.954;2023-04-24T03:46:59;99654.72;;;11.44;0.00
79645;BME280;69117;47.148;18.954;2023-04-24T03:50:01;99664.63;;;11.51;0.00
79645;BME280;69117;47.148;18.954;2023-04-24T03:53:03;99670.56;;;11.61;0.00
79645;BME280;69117;47.148;18.954;2023-04-24T03:56:05;99663.47;;;11.53;0.00
79645;BME280;69117;47.148;18.954;2023-04-24T03:59:06;99669.25;;;11.57;0.00
79645;BME280;69117;47.148;18.954;2023-04-24T04:02:08;99667.91;;;11.53;0.00
79645;BME280;69117;47.148;18.954;2023-04-24T04:05:10;99685.13;;;11.57;0.00
79645;BME280;69117;47.148;18.954;2023-04-24T04:08:11;99687.59;;;11.58;0.00
79645;BME280;69117;47.148;18.954;2023-04-24T04:11:13;99677.34;;;11.55;0.00
79645;BME280;69117;47.148;18.954;2023-04-24T04:14:15;99686.25;;;11.70;0.00
79645;BME280;69117;47.148;18.954;2023-04-24T04:17:16;99692.06;;;11.74;0.00
79645;BME280;69117;47.148;18.954;2023-04-24T04:20:18;99702.31;;;11.77;0.00
79645;BME280;69117;47.148;18.954;2023-04-24T04:23:19;99707.09;;;11.74;0.00
79645;BME280;69117;47.148;18.954;2023-04-24T04:26:21;99698.34;;;11.65;0.00
79645;BME280;69117;47.148;18.954;2023-04-24T04:29:26;99686.28;;;11.62;0.00
79645;BME280;69117;47.148;18.954;2023-04-24T04:32:28;99688.41;;;11.59;0.00
79645;BME280;69117;47.148;18.954;2023-04-24T04:35:30;99682.63;;;11.55;0.00
79645;BME280;69117;47.148;18.954;2023-04-24T04:38:31;99683.50;;;11.48;0.00
79645;BME280;69117;47.148;18.954;2023-04-24T04:41:33;99679.16;;;11.46;0.00
79645;BME280;69117;47.148;18.954;2023-04-24T04:44:36;99668.63;;;11.38;0.00
79645;BME280;69117;47.148;18.954;2023-04-24T04:47:39;99664.97;;;11.48;0.00
79645;BME280;69117;47.148;18.954;2023-04-24T04:50:41;99667.91;;;11.53;0.00
79645;BME280;69117;47.148;18.954;2023-04-24T04:53:43;99663.78;;;11.58;0.00
79645;BME280;69117;47.148;18.954;2023-04-24T04:56:53;99667.25;;;11.59;0.00
79645;BME280;69117;47.148;18.954;2023-04-24T04:59:55;99662.63;;;11.61;0.00
79645;BME280;69117;47.148;18.954;2023-04-24T05:02:57;99650.72;;;11.65;0.00
79645;BME280;69117;47.148;18.954;2023-04-24T05:06:13;99647.56;;;11.69;0.00
79645;BME280;69117;47.148;18.954;2023-04-24T05:09:14;99657.16;;;11.87;0.00
79645;BME280;69117;47.148;18.954;2023-04-24T05:12:16;99657.78;;;11.97;0.00
79645;BME280;69117;47.148;18.954;2023-04-24T05:15:18;99659.22;;;12.08;0.00
79645;BME280;69117;47.148;18.954;2023-04-24T05:18:19;99646.59;;;12.18;0.00
79645;BME280;69117;47.148;18.954;2023-04-24T05:21:22;99651.56;;;12.21;0.00
79645;BME280;69117;47.148;18.954;2023-04-24T05:24:23;99659.81;;;12.26;0.00
79645;BME280;69117;47.148;18.954;2023-04-24T05:27:25;99669.38;;;12.35;0.00
79645;BME280;69117;47.148;18.954;2023-04-24T05:30:27;99671.28;;;12.50;0.00
79645;BME280;69117;47.148;18.954;2023-04-24T05:33:28;99687.09;;;12.66;0.00
79645;BME280;69117;47.148;18.954;2023-04-24T05:36:30;99682.72;;;12.73;0.00
79645;BME280;69117;47.148;18.954;2023-04-24T05:39:32;99674.00;;;12.65;0.00
79645;BME280;69117;47.148;18.954;2023-04-24T05:42:34;99659.69;;;12.51;0.00
79645;BME280;69117;47.148;18.954;2023-04-24T05:45:35;99674.97;;;12.72;0.00
79645;BME280;69117;47.148;18.954;2023-04-24T05:48:37;99685.53;;;12.80;0.00
79645;BME280;69117;47.148;18.954;2023-04-24T05:51:39;99686.28;;;12.89;0.00
79645;BME280;69117;47.148;18.954;2023-04-24T05:54:41;99691.38;;;12.98;0.00
79645;BME280;69117;47.148;18.954;2023-04-24T05:57:42;99675.81;;;12.95;0.00
79645;BME280;69117;47.148;18.954;2023-04-24T06:00:44;99686.53;;;13.02;0.00
79645;BME280;69117;47.148;18.954;2023-04-24T06:03:48;99687.66;;;13.07;0.00
79645;BME280;69117;47.148;18.954;2023-04-24T06:06:50;99672.69;;;13.38;0.00
79645;BME280;69117;47.148;18.954;2023-04-24T06:09:57;99689.38;;;13.46;0.00
79645;BME280;69117;47.148;18.954;2023-04-24T06:12:58;99690.97;;;13.33;0.00
79645;BME280;69117;47.148;18.954;2023-04-24T06:16:02;99670.78;;;13.23;0.00
79645;BME280;69117;47.148;18.954;2023-04-24T06:19:03;99681.53;;;13.30;0.00
79645;BME280;69117;47.148;18.954;2023-04-24T06:22:05;99701.59;;;13.24;0.00
79645;BME280;69117;47.148;18.954;2023-04-24T06:25:08;99689.00;;;12.80;0.00
79645;BME280;69117;47.148;18.954;2023-04-24T06:28:10;99708.22;;;12.43;0.00
79645;BME280;69117;47.148;18.954;2023-04-24T06:31:11;99702.91;;;12.12;0.00
79645;BME280;69117;47.148;18.954;2023-04-24T06:34:13;99709.00;;;12.21;0.00
79645;BME280;69117;47.148;18.954;2023-04-24T06:37:15;99704.06;;;12.09;0.00
79645;BME280;69117;47.148;18.954;2023-04-24T06:40:17;99698.25;;;12.14;0.00
79645;BME280;69117;47.148;18.954;2023-04-24T06:43:20;99706.66;;;12.26;0.00
79645;BME280;69117;47.148;18.954;2023-04-24T06:46:22;99713.41;;;12.36;0.00
79645;BME280;69117;47.148;18.954;2023-04-24T06:49:25;99707.75;;;12.40;0.00
79645;BME280;69117;47.148;18.954;2023-04-24T06:52:26;99709.44;;;12.41;0.00
79645;BME280;69117;47.148;18.954;2023-04-24T06:55:28;99704.75;;;12.43;0.00
79645;BME280;69117;47.148;18.954;2023-04-24T06:58:30;99714.97;;;12.23;0.00
79645;BME280;69117;47.148;18.954;2023-04-24T07:01:32;99722.50;;;12.34;0.00
79645;BME280;69117;47.148;18.954;2023-04-24T07:04:33;99712.00;;;12.49;0.00
79645;BME280;69117;47.148;18.954;2023-04-24T07:07:35;99708.47;;;12.25;0.00
79645;BME280;69117;47.148;18.954;2023-04-24T07:10:39;99724.34;;;12.33;0.00
79645;BME280;69117;47.148;18.954;2023-04-24T07:13:41;99703.94;;;12.42;0.00
79645;BME280;69117;47.148;18.954;2023-04-24T07:16:45;99703.84;;;12.58;0.00
79645;BME280;69117;47.148;18.954;2023-04-24T07:19:47;99716.59;;;12.63;0.00
79645;BME280;69117;47.148;18.954;2023-04-24T07:22:49;99708.03;;;12.53;0.00
79645;BME280;69117;47.148;18.954;2023-04-24T07:25:50;99710.81;;;12.59;0.00
79645;BME280;69117;47.148;18.954;2023-04-24T07:28:52;99711.28;;;12.63;0.00
79645;BME280;69117;47.148;18.954;2023-04-24T07:31:54;99717.81;;;12.83;0.00
79645;BME280;69117;47.148;18.954;2023-04-24T07:34:56;99716.22;;;12.97;0.00
79645;BME280;69117;47.148;18.954;2023-04-24T07:37:57;99702.22;;;13.12;0.00
79645;BME280;69117;47.148;18.954;2023-04-24T07:40:59;99709.47;;;13.41;0.00
79645;BME280;69117;47.148;18.954;2023-04-24T07:44:01;99703.13;;;13.19;0.00
79645;BME280;69117;47.148;18.954;2023-04-24T07:47:02;99696.22;;;13.41;0.00
79645;BME280;69117;47.148;18.954;2023-04-24T07:50:05;99704.31;;;13.62;0.00
79645;BME280;69117;47.148;18.954;2023-04-24T07:53:06;99695.78;;;13.67;0.00
79645;BME280;69117;47.148;18.954;2023-04-24T07:56:08;99710.94;;;13.81;0.00
79645;BME280;69117;47.148;18.954;2023-04-24T07:59:10;99706.09;;;14.00;0.00
79645;BME280;69117;47.148;18.954;2023-04-24T08:02:12;99686.38;;;13.79;0.00
79645;BME280;69117;47.148;18.954;2023-04-24T08:05:14;99703.44;;;14.14;0.00
79645;BME280;69117;47.148;18.954;2023-04-24T08:08:16;99701.13;;;14.41;0.00
79645;BME280;69117;47.148;18.954;2023-04-24T08:11:18;99704.03;;;14.61;0.00
79645;BME280;69117;47.148;18.954;2023-04-24T08:14:20;99707.66;;;14.53;0.00
79645;BME280;69117;47.148;18.954;2023-04-24T08:17:21;99697.94;;;14.82;0.00
79645;BME280;69117;47.148;18.954;2023-04-24T08:20:23;99683.44;;;15.27;0.00
79645;BME280;69117;47.148;18.954;2023-04-24T08:23:24;99695.66;;;15.22;0.00
79645;BME280;69117;47.148;18.954;2023-04-24T08:26:26;99694.00;;;15.42;0.00
79645;BME280;69117;47.148;18.954;2023-04-24T08:29:28;99669.84;;;14.94;0.00
79645;BME280;69117;47.148;18.954;2023-04-24T08:32:29;99697.19;;;15.52;0.00
79645;BME280;69117;47.148;18.954;2023-04-24T08:35:32;99673.81;;;15.26;0.00
79645;BME280;69117;47.148;18.954;2023-04-24T08:38:34;99700.50;;;15.61;0.00
79645;BME280;69117;47.148;18.954;2023-04-24T08:41:37;99681.69;;;15.63;0.00
79645;BME280;69117;47.148;18.954;2023-04-24T08:44:39;99681.59;;;15.49;0.00
79645;BME280;69117;47.148;18.954;2023-04-24T08:47:41;99689.41;;;15.57;0.00
79645;BME280;69117;47.148;18.954;2023-04-24T08:50:44;99697.41;;;15.57;0.00
79645;BME280;69117;47.148;18.954;2023-04-24T08:53:46;99698.66;;;15.33;0.00
79645;BME280;69117;47.148;18.954;2023-04-24T08:56:48;99691.28;;;15.85;0.00
79645;BME280;69117;47.148;18.954;2023-04-24T08:59:50;99699.88;;;15.80;0.00
79645;BME280;69117;47.148;18.954;2023-04-24T09:02:53;99699.19;;;16.07;0.00
79645;BME280;69117;47.148;18.954;2023-04-24T09:05:57;99682.22;;;15.51;0.00
79645;BME280;69117;47.148;18.954;2023-04-24T09:09:02;99689.00;;;15.82;0.00
79645;BME280;69117;47.148;18.954;2023-04-24T09:12:04;99688.75;;;15.70;0.00
79645;BME280;69117;47.148;18.954;2023-04-24T09:15:07;99690.34;;;15.99;0.00
79645;BME280;69117;47.148;18.954;2023-04-24T09:18:09;99680.53;;;16.07;0.00
79645;BME280;69117;47.148;18.954;2023-04-24T09:21:11;99698.81;;;16.51;0.00
79645;BME280;69117;47.148;18.954;2023-04-24T09:24:18;99689.28;;;16.77;0.00
79645;BME280;69117;47.148;18.954;2023-04-24T09:27:23;99689.09;;;16.85;0.00
79645;BME280;69117;47.148;18.954;2023-04-24T09:30:25;99676.03;;;17.23;0.00
79645;BME280;69117;47.148;18.954;2023-04-24T09:33:26;99670.28;;;17.26;0.00
79645;BME280;69117;47.148;18.954;2023-04-24T09:36:30;99672.91;;;17.66;0.00
79645;BME280;69117;47.148;18.954;2023-04-24T09:39:34;99673.09;;;18.04;0.00
79645;BME280;69117;47.148;18.954;2023-04-24T09:42:35;99670.41;;;18.56;0.00
79645;BME280;69117;47.148;18.954;2023-04-24T09:45:39;99666.28;;;18.60;65.88
79645;BME280;69117;47.148;18.954;2023-04-24T09:48:41;99665.56;;;19.16;64.07
79645;BME280;69117;47.148;18.954;2023-04-24T09:51:43;99654.13;;;19.28;61.35
79645;BME280;69117;47.148;18.954;2023-04-24T09:54:52;99655.03;;;19.15;60.44
79645;BME280;69117;47.148;18.954;2023-04-24T09:57:57;99653.72;;;19.24;60.61
79645;BME280;69117;47.148;18.954;2023-04-24T10:00:59;99649.97;;;19.82;57.90
79645;BME280;69117;47.148;18.954;2023-04-24T10:04:01;99655.38;;;19.75;60.44
79645;BME280;69117;47.148;18.954;2023-04-24T10:07:03;99652.81;;;19.62;59.94
79645;BME280;69117;47.148;18.954;2023-04-24T10:10:11;99651.28;;;19.48;58.28
79645;BME280;69117;47.148;18.954;2023-04-24T10:13:14;99639.31;;;19.50;57.59
79645;BME280;69117;47.148;18.954;2023-04-24T10:16:17;99645.22;;;20.32;57.69
79645;BME280;69117;47.148;18.954;2023-04-24T10:19:18;99641.31;;;20.95;52.76
79645;BME280;69117;47.148;18.954;2023-04-24T10:22:21;99643.00;;;21.90;54.44
79645;BME280;69117;47.148;18.954;2023-04-24T10:25:28;99637.50;;;22.09;51.72
79645;BME280;69117;47.148;18.954;2023-04-24T10:28:31;99629.47;;;22.37;49.23
79645;BME280;69117;47.148;18.954;2023-04-24T10:31:33;99625.84;;;21.44;49.11
79645;BME280;69117;47.148;18.954;2023-04-24T10:34:35;99622.06;;;22.04;48.78
79645;BME280;69117;47.148;18.954;2023-04-24T10:38:02;99621.91;;;22.11;48.36
79645;BME280;69117;47.148;18.954;2023-04-24T10:41:10;99611.56;;;21.32;51.59
79645;BME280;69117;47.148;18.954;2023-04-24T10:44:17;99608.69;;;20.80;52.13
79645;BME280;69117;47.148;18.954;2023-04-24T10:47:19;99598.41;;;19.98;51.64
79645;BME280;69117;47.148;18.954;2023-04-24T10:50:21;99616.00;;;20.12;55.30
79645;BME280;69117;47.148;18.954;2023-04-24T10:53:24;99612.03;;;19.35;56.24
79645;BME280;69117;47.148;18.954;2023-04-24T10:56:28;99621.16;;;19.52;56.50
79645;BME280;69117;47.148;18.954;2023-04-24T10:59:35;99614.03;;;20.20;57.30
79645;BME280;69117;47.148;18.954;2023-04-24T11:02:39;99611.13;;;20.51;56.99
79645;BME280;69117;47.148;18.954;2023-04-24T11:09:01;99622.38;;;20.11;57.07
79645;BME280;69117;47.148;18.954;2023-04-24T11:12:09;99607.19;;;19.87;54.00
79645;BME280;69117;47.148;18.954;2023-04-24T11:15:12;99613.81;;;20.03;54.18
79645;BME280;69117;47.148;18.954;2023-04-24T11:18:14;99584.63;;;19.33;56.51
79645;BME280;69117;47.148;18.954;2023-04-24T11:21:17;99613.56;;;18.99;57.28
79645;BME280;69117;47.148;18.954;2023-04-24T11:27:38;99621.44;;;18.56;60.54
79645;BME280;69117;47.148;18.954;2023-04-24T11:30:40;99611.47;;;17.86;61.27
79645;BME280;69117;47.148;18.954;2023-04-24T11:33:42;99607.94;;;17.92;59.87
79645;BME280;69117;47.148;18.954;2023-04-24T11:36:45;99611.25;;;17.81;61.47
79645;BME280;69117;47.148;18.954;2023-04-24T11:39:50;99619.47;;;17.73;62.28
79645;BME280;69117;47.148;18.954;2023-04-24T11:42:53;99593.22;;;17.36;62.71
79645;BME280;69117;47.148;18.954;2023-04-24T11:45:59;99610.91;;;17.37;64.42
79645;BME280;69117;47.148;18.954;2023-04-24T11:49:01;99603.72;;;17.38;66.00
79645;BME280;69117;47.148;18.954;2023-04-24T11:52:04;99610.06;;;17.50;65.38
79645;BME280;69117;47.148;18.954;2023-04-24T11:55:26;99614.75;;;17.81;67.30
79645;BME280;69117;47.148;18.954;2023-04-24T11:58:28;99613.84;;;18.07;64.56
79645;BME280;69117;47.148;18.954;2023-04-24T12:01:45;99604.41;;;18.82;62.05
79645;BME280;69117;47.148;18.954;2023-04-24T12:04:47;99604.72;;;19.23;60.14
79645;BME280;69117;47.148;18.954;2023-04-24T12:07:50;99611.22;;;19.78;60.21
79645;BME280;69117;47.148;18.954;2023-04-24T12:10:51;99578.00;;;19.79;59.52
79645;BME280;69117;47.148;18.954;2023-04-24T12:13:53;99599.06;;;19.75;58.22
79645;BME280;69117;47.148;18.954;2023-04-24T12:16:55;99592.22;;;19.61;58.22
79645;BME280;69117;47.148;18.954;2023-04-24T12:20:02;99590.41;;;19.11;58.78
79645;BME280;69117;47.148;18.954;2023-04-24T12:23:04;99606.88;;;18.45;62.47
79645;BME280;69117;47.148;18.954;2023-04-24T12:26:05;99605.81;;;18.14;62.89
79645;BME280;69117;47.148;18.954;2023-04-24T12:29:07;99609.59;;;17.87;63.69
79645;BME280;69117;47.148;18.954;2023-04-24T12:32:16;99595.09;;;17.29;65.08
79645;BME280;69117;47.148;18.954;2023-04-24T12:35:22;99602.69;;;17.06;68.04
79645;BME280;69117;47.148;18.954;2023-04-24T12:38:26;99610.69;;;16.79;68.28
79645;BME280;69117;47.148;18.954;2023-04-24T12:41:30;99631.28;;;16.37;70.55
79645;BME280;69117;47.148;18.954;2023-04-24T12:44:33;99628.38;;;15.84;0.00
79645;BME280;69117;47.148;18.954;2023-04-24T12:47:35;99635.41;;;14.64;0.00
79645;BME280;69117;47.148;18.954;2023-04-24T12:50:38;99647.56;;;14.08;0.00
79645;BME280;69117;47.148;18.954;2023-04-24T12:53:39;99632.09;;;13.82;0.00
79645;BME280;69117;47.148;18.954;2023-04-24T12:56:42;99638.69;;;13.71;0.00
79645;BME280;69117;47.148;18.954;2023-04-24T12:59:43;99634.56;;;13.68;0.00
79645;BME280;69117;47.148;18.954;2023-04-24T13:02:45;99639.31;;;13.73;0.00
79645;BME280;69117;47.148;18.954;2023-04-24T13:05:47;99632.28;;;13.65;0.00
79645;BME280;69117;47.148;18.954;2023-04-24T13:08:48;99633.28;;;13.64;0.00
79645;BME280;69117;47.148;18.954;2023-04-24T13:11:50;99629.41;;;13.52;0.00
79645;BME280;69117;47.148;18.954;2023-04-24T13:14:52;99632.56;;;13.56;0.00
79645;BME280;69117;47.148;18.954;2023-04-24T13:17:54;99626.16;;;13.50;0.00
79645;BME280;69117;47.148;18.954;2023-04-24T13:20:55;99629.91;;;13.56;0.00
79645;BME280;69117;47.148;18.954;2023-04-24T13:23:57;99631.84;;;13.62;0.00
79645;BME280;69117;47.148;18.954;2023-04-24T13:26:59;99622.28;;;13.67;0.00
79645;BME280;69117;47.148;18.954;2023-04-24T13:30:02;99617.09;;;13.74;0.00
79645;BME280;69117;47.148;18.954;2023-04-24T13:33:04;99611.59;;;13.90;0.00
79645;BME280;69117;47.148;18.954;2023-04-24T13:36:06;99616.44;;;14.02;0.00
79645;BME280;69117;47.148;18.954;2023-04-24T13:39:08;99599.84;;;14.00;0.00
79645;BME280;69117;47.148;18.954;2023-04-24T13:42:09;99600.31;;;13.88;0.00
79645;BME280;69117;47.148;18.954;2023-04-24T13:45:12;99603.78;;;14.04;0.00
79645;BME280;69117;47.148;18.954;2023-04-24T13:48:24;99594.38;;;14.01;0.00
79645;BME280;69117;47.148;18.954;2023-04-24T13:51:26;99613.13;;;14.14;0.00
79645;BME280;69117;47.148;18.954;2023-04-24T13:54:28;99609.19;;;14.10;0.00
79645;BME280;69117;47.148;18.954;2023-04-24T13:57:30;99594.19;;;14.03;0.00
79645;BME280;69117;47.148;18.954;2023-04-24T14:00:32;99609.19;;;14.10;0.00
79645;BME280;69117;47.148;18.954;2023-04-24T14:03:34;99575.88;;;13.93;0.00
79645;BME280;69117;47.148;18.954;2023-04-24T14:06:36;99590.69;;;14.02;0.00
79645;BME280;69117;47.148;18.954;2023-04-24T14:09:37;99577.69;;;14.07;0.00
79645;BME280;69117;47.148;18.954;2023-04-24T14:12:39;99566.66;;;14.25;0.00
79645;BME280;69117;47.148;18.954;2023-04-24T14:15:41;99570.28;;;14.39;0.00
79645;BME280;69117;47.148;18.954;2023-04-24T14:18:43;99589.72;;;14.61;0.00
79645;BME280;69117;47.148;18.954;2023-04-24T14:21:44;99571.34;;;14.59;0.00
79645;BME280;69117;47.148;18.954;2023-04-24T14:24:46;99578.22;;;14.75;0.00
79645;BME280;69117;47.148;18.954;2023-04-24T14:27:48;99568.16;;;14.92;0.00
79645;BME280;69117;47.148;18.954;2023-04-24T14:30:49;99564.13;;;15.03;0.00
79645;BME280;69117;47.148;18.954;2023-04-24T14:33:51;99551.41;;;15.26;0.00
79645;BME280;69117;47.148;18.954;2023-04-24T14:36:53;99568.78;;;15.22;0.00
79645;BME280;69117;47.148;18.954;2023-04-24T14:39:55;99561.63;;;15.23;0.00
79645;BME280;69117;47.148;18.954;2023-04-24T14:43:16;99569.50;;;15.09;0.00
79645;BME280;69117;47.148;18.954;2023-04-24T14:46:18;99569.22;;;14.98;0.00
79645;BME280;69117;47.148;18.954;2023-04-24T14:49:20;99565.66;;;14.91;0.00
79645;BME280;69117;47.148;18.954;2023-04-24T14:52:21;99561.41;;;14.96;0.00
79645;BME280;69117;47.148;18.954;2023-04-24T14:55:24;99552.88;;;14.79;0.00
79645;BME280;69117;47.148;18.954;2023-04-24T14:58:26;99565.56;;;14.77;0.00
79645;BME280;69117;47.148;18.954;2023-04-24T15:01:28;99555.03;;;14.91;0.00
79645;BME280;69117;47.148;18.954;2023-04-24T15:04:29;99557.03;;;14.88;0.00
79645;BME280;69117;47.148;18.954;2023-04-24T15:07:32;99562.56;;;15.15;0.00
79645;BME280;69117;47.148;18.954;2023-04-24T15:10:34;99553.44;;;14.96;0.00
79645;BME280;69117;47.148;18.954;2023-04-24T15:13:36;99554.94;;;15.05;0.00
79645;BME280;69117;47.148;18.954;2023-04-24T15:16:38;99547.34;;;15.02;0.00
79645;BME280;69117;47.148;18.954;2023-04-24T15:19:40;99549.91;;;14.89;0.00
79645;BME280;69117;47.148;18.954;2023-04-24T15:22:41;99559.56;;;14.69;0.00
79645;BME280;69117;47.148;18.954;2023-04-24T15:25:43;99559.47;;;14.40;0.00
79645;BME280;69117;47.148;18.954;2023-04-24T15:28:45;99555.91;;;13.82;0.00
79645;BME280;69117;47.148;18.954;2023-04-24T15:31:48;99565.66;;;13.45;0.00
79645;BME280;69117;47.148;18.954;2023-04-24T15:34:49;99564.41;;;13.18;0.00
79645;BME280;69117;47.148;18.954;2023-04-24T15:38:05;99559.31;;;12.94;0.00
79645;BME280;69117;47.148;18.954;2023-04-24T15:41:07;99551.22;;;12.72;0.00
79645;BME280;69117;47.148;18.954;2023-04-24T15:44:08;99564.53;;;12.64;0.00
79645;BME280;69117;47.148;18.954;2023-04-24T15:47:10;99577.31;;;12.60;0.00
79645;BME280;69117;47.148;18.954;2023-04-24T15:50:14;99573.38;;;12.56;0.00
79645;BME280;69117;47.148;18.954;2023-04-24T15:53:17;99539.94;;;12.32;0.00
79645;BME280;69117;47.148;18.954;2023-04-24T15:56:22;99560.50;;;12.53;0.00
79645;BME280;69117;47.148;18.954;2023-04-24T15:59:24;99559.38;;;12.48;0.00
79645;BME280;69117;47.148;18.954;2023-04-24T16:02:27;99564.63;;;12.56;0.00
79645;BME280;69117;47.148;18.954;2023-04-24T16:05:29;99575.44;;;12.69;0.00
79645;BME280;69117;47.148;18.954;2023-04-24T16:08:31;99574.56;;;12.77;0.00
79645;BME280;69117;47.148;18.954;2023-04-24T16:11:33;99562.13;;;12.77;0.00